sensor_id;sensor_type;location;lat;lon;timestamp;P1;durP1;ratioP1;P2;durP2;ratioP2
6529;SDS011;3298;42.688;23.366;2023-09-19T00:00:30;2.83;;;2.70;;
6529;SDS011;3298;42.688;23.366;2023-09-19T00:02:58;4.67;;;2.90;;
6529;SDS011;3298;42.688;23.366;2023-09-19T00:05:27;3.30;;;3.00;;
6529;SDS011;3298;42.688;23.366;2023-09-19T00:07:54;3.60;;;3.30;;
6529;SDS011;3298;42.688;23.366;2023-09-19T00:10:23;3.57;;;3.37;;
6529;SDS011;3298;42.688;23.366;2023-09-19T00:12:52;3.50;;;3.30;;
6529;SDS011;3298;42.688;23.366;2023-09-19T00:15:20;3.37;;;3.07;;
6529;SDS011;3298;42.688;23.366;2023-09-19T00:17:47;3.60;;;3.30;;
6529;SDS011;3298;42.688;23.366;2023-09-19T00:20:14;3.53;;;3.30;;
6529;SDS011;3298;42.688;23.366;2023-09-19T00:22:43;3.20;;;2.93;;
6529;SDS011;3298;42.688;23.366;2023-09-19T00:25:11;3.53;;;3.23;;
6529;SDS011;3298;42.688;23.366;2023-09-19T00:27:40;4.97;;;3.47;;
6529;SDS011;3298;42.688;23.366;2023-09-19T00:30:08;4.33;;;2.97;;
6529;SDS011;3298;42.688;23.366;2023-09-19T00:32:39;3.40;;;3.20;;
6529;SDS011;3298;42.688;23.366;2023-09-19T00:35:07;3.43;;;3.20;;
6529;SDS011;3298;42.688;23.366;2023-09-19T00:37:35;6.50;;;3.27;;
6529;SDS011;3298;42.688;23.366;2023-09-19T00:40:04;3.53;;;3.00;;
6529;SDS011;3298;42.688;23.366;2023-09-19T00:42:32;3.70;;;3.50;;
6529;SDS011;3298;42.688;23.366;2023-09-19T00:44:59;3.90;;;3.50;;
6529;SDS011;3298;42.688;23.366;2023-09-19T00:47:28;4.83;;;4.00;;
6529;SDS011;3298;42.688;23.366;2023-09-19T00:49:56;3.77;;;3.53;;
6529;SDS011;3298;42.688;23.366;2023-09-19T00:52:23;4.53;;;3.80;;
6529;SDS011;3298;42.688;23.366;2023-09-19T00:54:50;3.47;;;3.20;;
6529;SDS011;3298;42.688;23.366;2023-09-19T00:57:19;5.53;;;3.70;;
6529;SDS011;3298;42.688;23.366;2023-09-19T00:59:48;4.07;;;3.87;;
6529;SDS011;3298;42.688;23.366;2023-09-19T01:02:16;4.10;;;3.80;;
6529;SDS011;3298;42.688;23.366;2023-09-19T01:04:43;4.10;;;3.43;;
6529;SDS011;3298;42.688;23.366;2023-09-19T01:07:11;4.30;;;4.10;;
6529;SDS011;3298;42.688;23.366;2023-09-19T01:09:40;3.87;;;3.63;;
6529;SDS011;3298;42.688;23.366;2023-09-19T01:12:07;3.73;;;3.43;;
6529;SDS011;3298;42.688;23.366;2023-09-19T01:14:42;3.23;;;3.03;;
6529;SDS011;3298;42.688;23.366;2023-09-19T01:17:23;4.03;;;3.73;;
6529;SDS011;3298;42.688;23.366;2023-09-19T01:22:46;5.23;;;3.30;;
6529;SDS011;3298;42.688;23.366;2023-09-19T01:28:20;5.67;;;4.57;;
6529;SDS011;3298;42.688;23.366;2023-09-19T01:31:03;5.00;;;4.50;;
6529;SDS011;3298;42.688;23.366;2023-09-19T01:36:22;4.37;;;4.07;;
6529;SDS011;3298;42.688;23.366;2023-09-19T01:38:49;5.40;;;4.93;;
6529;SDS011;3298;42.688;23.366;2023-09-19T01:41:17;5.00;;;4.50;;
6529;SDS011;3298;42.688;23.366;2023-09-19T01:43:52;4.57;;;4.07;;
6529;SDS011;3298;42.688;23.366;2023-09-19T01:46:21;5.30;;;4.80;;
6529;SDS011;3298;42.688;23.366;2023-09-19T01:48:54;5.93;;;4.87;;
6529;SDS011;3298;42.688;23.366;2023-09-19T01:51:32;6.10;;;5.50;;
6529;SDS011;3298;42.688;23.366;2023-09-19T01:54:01;6.03;;;5.53;;
6529;SDS011;3298;42.688;23.366;2023-09-19T01:56:32;5.70;;;5.30;;
6529;SDS011;3298;42.688;23.366;2023-09-19T01:59:04;5.40;;;4.90;;
6529;SDS011;3298;42.688;23.366;2023-09-19T02:01:35;5.83;;;5.00;;
6529;SDS011;3298;42.688;23.366;2023-09-19T02:04:04;11.03;;;5.07;;
6529;SDS011;3298;42.688;23.366;2023-09-19T02:06:31;6.90;;;5.10;;
6529;SDS011;3298;42.688;23.366;2023-09-19T02:08:59;4.90;;;4.50;;
6529;SDS011;3298;42.688;23.366;2023-09-19T02:11:25;7.87;;;5.17;;
6529;SDS011;3298;42.688;23.366;2023-09-19T02:13:52;6.67;;;5.43;;
6529;SDS011;3298;42.688;23.366;2023-09-19T02:16:19;5.37;;;4.87;;
6529;SDS011;3298;42.688;23.366;2023-09-19T02:18:48;6.27;;;5.67;;
6529;SDS011;3298;42.688;23.366;2023-09-19T02:21:16;5.70;;;5.30;;
6529;SDS011;3298;42.688;23.366;2023-09-19T02:23:43;5.70;;;4.40;;
6529;SDS011;3298;42.688;23.366;2023-09-19T02:26:10;6.90;;;5.20;;
6529;SDS011;3298;42.688;23.366;2023-09-19T02:28:37;5.90;;;3.97;;
6529;SDS011;3298;42.688;23.366;2023-09-19T02:31:04;4.57;;;4.17;;
6529;SDS011;3298;42.688;23.366;2023-09-19T02:33:31;4.97;;;4.30;;
6529;SDS011;3298;42.688;23.366;2023-09-19T02:36:00;4.87;;;4.47;;
6529;SDS011;3298;42.688;23.366;2023-09-19T02:38:28;5.00;;;4.63;;
6529;SDS011;3298;42.688;23.366;2023-09-19T02:40:55;4.03;;;3.80;;
6529;SDS011;3298;42.688;23.366;2023-09-19T02:43:23;4.00;;;3.80;;
6529;SDS011;3298;42.688;23.366;2023-09-19T02:45:50;5.17;;;4.77;;
6529;SDS011;3298;42.688;23.366;2023-09-19T02:48:18;4.23;;;4.03;;
6529;SDS011;3298;42.688;23.366;2023-09-19T02:50:45;4.90;;;4.40;;
6529;SDS011;3298;42.688;23.366;2023-09-19T02:53:16;5.37;;;4.80;;
6529;SDS011;3298;42.688;23.366;2023-09-19T02:55:44;6.90;;;4.70;;
6529;SDS011;3298;42.688;23.366;2023-09-19T02:58:11;5.20;;;4.13;;
6529;SDS011;3298;42.688;23.366;2023-09-19T03:00:39;5.50;;;4.90;;
6529;SDS011;3298;42.688;23.366;2023-09-19T03:03:07;4.87;;;4.50;;
6529;SDS011;3298;42.688;23.366;2023-09-19T03:05:35;5.73;;;4.40;;
6529;SDS011;3298;42.688;23.366;2023-09-19T03:08:03;6.53;;;5.20;;
6529;SDS011;3298;42.688;23.366;2023-09-19T03:10:32;4.90;;;4.40;;
6529;SDS011;3298;42.688;23.366;2023-09-19T03:13:01;5.40;;;4.70;;
6529;SDS011;3298;42.688;23.366;2023-09-19T03:15:28;4.97;;;4.57;;
6529;SDS011;3298;42.688;23.366;2023-09-19T03:17:55;4.87;;;4.43;;
6529;SDS011;3298;42.688;23.366;2023-09-19T03:20:23;4.63;;;4.33;;
6529;SDS011;3298;42.688;23.366;2023-09-19T03:22:50;4.73;;;4.43;;
6529;SDS011;3298;42.688;23.366;2023-09-19T03:25:17;5.90;;;4.70;;
6529;SDS011;3298;42.688;23.366;2023-09-19T03:27:45;5.77;;;4.73;;
6529;SDS011;3298;42.688;23.366;2023-09-19T03:30:12;5.97;;;4.43;;
6529;SDS011;3298;42.688;23.366;2023-09-19T03:32:43;7.23;;;4.07;;
6529;SDS011;3298;42.688;23.366;2023-09-19T03:35:11;4.20;;;3.90;;
6529;SDS011;3298;42.688;23.366;2023-09-19T03:37:39;4.27;;;3.90;;
6529;SDS011;3298;42.688;23.366;2023-09-19T03:40:06;4.60;;;3.73;;
6529;SDS011;3298;42.688;23.366;2023-09-19T03:42:37;4.33;;;4.03;;
6529;SDS011;3298;42.688;23.366;2023-09-19T03:45:06;5.20;;;4.67;;
6529;SDS011;3298;42.688;23.366;2023-09-19T03:47:37;8.27;;;4.27;;
6529;SDS011;3298;42.688;23.366;2023-09-19T03:50:04;4.23;;;3.93;;
6529;SDS011;3298;42.688;23.366;2023-09-19T03:52:32;5.03;;;4.27;;
6529;SDS011;3298;42.688;23.366;2023-09-19T03:54:59;4.23;;;3.90;;
6529;SDS011;3298;42.688;23.366;2023-09-19T03:57:26;4.07;;;3.70;;
6529;SDS011;3298;42.688;23.366;2023-09-19T03:59:53;7.07;;;5.00;;
6529;SDS011;3298;42.688;23.366;2023-09-19T04:02:22;5.90;;;4.70;;
6529;SDS011;3298;42.688;23.366;2023-09-19T04:04:49;4.20;;;3.90;;
6529;SDS011;3298;42.688;23.366;2023-09-19T04:07:16;5.37;;;4.87;;
6529;SDS011;3298;42.688;23.366;2023-09-19T04:09:44;4.30;;;4.00;;
6529;SDS011;3298;42.688;23.366;2023-09-19T04:12:11;5.10;;;4.63;;
6529;SDS011;3298;42.688;23.366;2023-09-19T04:14:37;5.13;;;4.83;;
6529;SDS011;3298;42.688;23.366;2023-09-19T04:17:04;10.70;;;5.63;;
6529;SDS011;3298;42.688;23.366;2023-09-19T04:19:33;5.63;;;4.90;;
6529;SDS011;3298;42.688;23.366;2023-09-19T04:21:59;5.60;;;5.10;;
6529;SDS011;3298;42.688;23.366;2023-09-19T04:24:26;5.07;;;4.67;;
6529;SDS011;3298;42.688;23.366;2023-09-19T04:26:54;5.07;;;4.67;;
6529;SDS011;3298;42.688;23.366;2023-09-19T04:29:22;5.63;;;5.23;;
6529;SDS011;3298;42.688;23.366;2023-09-19T04:31:49;4.63;;;4.23;;
6529;SDS011;3298;42.688;23.366;2023-09-19T04:34:17;6.00;;;4.47;;
6529;SDS011;3298;42.688;23.366;2023-09-19T04:36:45;7.00;;;4.90;;
6529;SDS011;3298;42.688;23.366;2023-09-19T04:39:12;10.57;;;4.87;;
6529;SDS011;3298;42.688;23.366;2023-09-19T04:41:38;4.60;;;4.07;;
6529;SDS011;3298;42.688;23.366;2023-09-19T04:44:06;5.10;;;4.70;;
6529;SDS011;3298;42.688;23.366;2023-09-19T04:46:33;5.03;;;4.53;;
6529;SDS011;3298;42.688;23.366;2023-09-19T04:49:00;4.57;;;4.20;;
6529;SDS011;3298;42.688;23.366;2023-09-19T04:51:27;7.97;;;4.60;;
6529;SDS011;3298;42.688;23.366;2023-09-19T04:54:00;8.73;;;4.50;;
6529;SDS011;3298;42.688;23.366;2023-09-19T04:56:27;5.37;;;4.87;;
6529;SDS011;3298;42.688;23.366;2023-09-19T04:58:55;5.33;;;4.93;;
6529;SDS011;3298;42.688;23.366;2023-09-19T05:01:23;5.60;;;4.50;;
6529;SDS011;3298;42.688;23.366;2023-09-19T05:03:50;5.00;;;4.47;;
6529;SDS011;3298;42.688;23.366;2023-09-19T05:06:17;9.17;;;8.10;;
6529;SDS011;3298;42.688;23.366;2023-09-19T05:08:46;9.90;;;8.87;;
6529;SDS011;3298;42.688;23.366;2023-09-19T05:11:18;11.00;;;8.07;;
6529;SDS011;3298;42.688;23.366;2023-09-19T05:13:47;9.17;;;6.70;;
6529;SDS011;3298;42.688;23.366;2023-09-19T05:16:15;6.23;;;5.47;;
6529;SDS011;3298;42.688;23.366;2023-09-19T05:18:42;5.80;;;5.40;;
6529;SDS011;3298;42.688;23.366;2023-09-19T05:21:08;6.30;;;4.30;;
6529;SDS011;3298;42.688;23.366;2023-09-19T05:23:35;4.07;;;3.80;;
6529;SDS011;3298;42.688;23.366;2023-09-19T05:26:02;3.83;;;3.53;;
6529;SDS011;3298;42.688;23.366;2023-09-19T05:28:31;9.37;;;4.23;;
6529;SDS011;3298;42.688;23.366;2023-09-19T05:31:00;3.87;;;3.43;;
6529;SDS011;3298;42.688;23.366;2023-09-19T05:33:27;5.00;;;3.83;;
6529;SDS011;3298;42.688;23.366;2023-09-19T05:35:56;3.90;;;3.40;;
6529;SDS011;3298;42.688;23.366;2023-09-19T05:38:23;5.00;;;3.23;;
6529;SDS011;3298;42.688;23.366;2023-09-19T05:40:51;3.10;;;2.90;;
6529;SDS011;3298;42.688;23.366;2023-09-19T05:43:19;3.60;;;3.27;;
6529;SDS011;3298;42.688;23.366;2023-09-19T05:45:47;3.60;;;3.40;;
6529;SDS011;3298;42.688;23.366;2023-09-19T05:48:14;6.03;;;3.47;;
6529;SDS011;3298;42.688;23.366;2023-09-19T05:50:42;3.20;;;3.00;;
6529;SDS011;3298;42.688;23.366;2023-09-19T05:53:11;4.33;;;3.53;;
6529;SDS011;3298;42.688;23.366;2023-09-19T05:55:39;3.03;;;2.83;;
6529;SDS011;3298;42.688;23.366;2023-09-19T05:58:06;5.07;;;4.13;;
6529;SDS011;3298;42.688;23.366;2023-09-19T06:00:35;6.13;;;4.03;;
6529;SDS011;3298;42.688;23.366;2023-09-19T06:03:03;3.33;;;2.97;;
6529;SDS011;3298;42.688;23.366;2023-09-19T06:05:30;5.07;;;3.63;;
6529;SDS011;3298;42.688;23.366;2023-09-19T06:07:57;4.33;;;3.63;;
6529;SDS011;3298;42.688;23.366;2023-09-19T06:10:25;5.37;;;3.07;;
6529;SDS011;3298;42.688;23.366;2023-09-19T06:12:53;5.43;;;3.90;;
6529;SDS011;3298;42.688;23.366;2023-09-19T06:15:23;3.77;;;3.57;;
6529;SDS011;3298;42.688;23.366;2023-09-19T06:17:50;8.53;;;3.60;;
6529;SDS011;3298;42.688;23.366;2023-09-19T06:20:21;6.07;;;3.43;;
6529;SDS011;3298;42.688;23.366;2023-09-19T06:22:49;4.07;;;3.23;;
6529;SDS011;3298;42.688;23.366;2023-09-19T06:25:16;4.90;;;4.50;;
6529;SDS011;3298;42.688;23.366;2023-09-19T06:27:44;9.07;;;4.03;;
6529;SDS011;3298;42.688;23.366;2023-09-19T06:30:11;7.97;;;3.40;;
6529;SDS011;3298;42.688;23.366;2023-09-19T06:32:39;7.83;;;3.20;;
6529;SDS011;3298;42.688;23.366;2023-09-19T06:35:09;6.83;;;3.33;;
6529;SDS011;3298;42.688;23.366;2023-09-19T06:37:37;3.67;;;3.37;;
6529;SDS011;3298;42.688;23.366;2023-09-19T06:40:06;4.63;;;4.23;;
6529;SDS011;3298;42.688;23.366;2023-09-19T06:42:38;3.80;;;3.50;;
6529;SDS011;3298;42.688;23.366;2023-09-19T06:45:06;2.97;;;2.63;;
6529;SDS011;3298;42.688;23.366;2023-09-19T06:47:34;3.67;;;3.47;;
6529;SDS011;3298;42.688;23.366;2023-09-19T06:50:01;3.83;;;3.27;;
6529;SDS011;3298;42.688;23.366;2023-09-19T06:52:30;10.30;;;3.80;;
6529;SDS011;3298;42.688;23.366;2023-09-19T06:54:58;4.70;;;2.70;;
6529;SDS011;3298;42.688;23.366;2023-09-19T06:57:25;3.80;;;3.57;;
6529;SDS011;3298;42.688;23.366;2023-09-19T06:59:52;3.87;;;3.07;;
6529;SDS011;3298;42.688;23.366;2023-09-19T07:02:19;3.27;;;3.07;;
6529;SDS011;3298;42.688;23.366;2023-09-19T07:04:47;5.70;;;3.77;;
6529;SDS011;3298;42.688;23.366;2023-09-19T07:07:14;3.40;;;3.10;;
6529;SDS011;3298;42.688;23.366;2023-09-19T07:09:41;3.53;;;3.23;;
6529;SDS011;3298;42.688;23.366;2023-09-19T07:12:09;5.07;;;3.00;;
6529;SDS011;3298;42.688;23.366;2023-09-19T07:14:37;3.83;;;2.80;;
6529;SDS011;3298;42.688;23.366;2023-09-19T07:17:03;5.20;;;2.93;;
6529;SDS011;3298;42.688;23.366;2023-09-19T07:19:30;3.30;;;2.90;;
6529;SDS011;3298;42.688;23.366;2023-09-19T07:21:57;3.30;;;3.10;;
6529;SDS011;3298;42.688;23.366;2023-09-19T07:24:24;3.27;;;2.87;;
6529;SDS011;3298;42.688;23.366;2023-09-19T07:26:52;3.63;;;2.77;;
6529;SDS011;3298;42.688;23.366;2023-09-19T07:29:20;4.30;;;3.50;;
6529;SDS011;3298;42.688;23.366;2023-09-19T07:31:47;8.00;;;3.20;;
6529;SDS011;3298;42.688;23.366;2023-09-19T07:34:15;3.13;;;2.93;;
6529;SDS011;3298;42.688;23.366;2023-09-19T07:36:41;4.40;;;3.00;;
6529;SDS011;3298;42.688;23.366;2023-09-19T07:39:09;3.43;;;3.23;;
6529;SDS011;3298;42.688;23.366;2023-09-19T07:41:35;7.53;;;3.10;;
6529;SDS011;3298;42.688;23.366;2023-09-19T07:44:02;4.30;;;3.23;;
6529;SDS011;3298;42.688;23.366;2023-09-19T07:46:31;3.03;;;2.83;;
6529;SDS011;3298;42.688;23.366;2023-09-19T07:48:58;5.70;;;4.40;;
6529;SDS011;3298;42.688;23.366;2023-09-19T07:51:25;4.60;;;4.20;;
6529;SDS011;3298;42.688;23.366;2023-09-19T07:53:52;6.90;;;6.30;;
6529;SDS011;3298;42.688;23.366;2023-09-19T07:56:20;3.20;;;3.00;;
6529;SDS011;3298;42.688;23.366;2023-09-19T07:58:47;4.50;;;3.30;;
6529;SDS011;3298;42.688;23.366;2023-09-19T08:01:14;4.90;;;3.70;;
6529;SDS011;3298;42.688;23.366;2023-09-19T08:03:42;3.37;;;3.17;;
6529;SDS011;3298;42.688;23.366;2023-09-19T08:06:10;2.93;;;2.67;;
6529;SDS011;3298;42.688;23.366;2023-09-19T08:08:39;3.30;;;3.10;;
6529;SDS011;3298;42.688;23.366;2023-09-19T08:11:06;5.30;;;3.40;;
6529;SDS011;3298;42.688;23.366;2023-09-19T08:13:36;5.73;;;2.73;;
6529;SDS011;3298;42.688;23.366;2023-09-19T08:16:06;5.80;;;3.47;;
6529;SDS011;3298;42.688;23.366;2023-09-19T08:18:33;5.90;;;3.10;;
6529;SDS011;3298;42.688;23.366;2023-09-19T08:21:01;4.73;;;4.37;;
6529;SDS011;3298;42.688;23.366;2023-09-19T08:23:28;4.00;;;2.93;;
6529;SDS011;3298;42.688;23.366;2023-09-19T08:25:57;3.37;;;3.10;;
6529;SDS011;3298;42.688;23.366;2023-09-19T08:28:26;5.47;;;3.53;;
6529;SDS011;3298;42.688;23.366;2023-09-19T08:30:54;5.77;;;3.07;;
6529;SDS011;3298;42.688;23.366;2023-09-19T08:33:23;3.60;;;3.40;;
6529;SDS011;3298;42.688;23.366;2023-09-19T08:35:50;4.80;;;3.53;;
6529;SDS011;3298;42.688;23.366;2023-09-19T08:38:18;7.77;;;3.17;;
6529;SDS011;3298;42.688;23.366;2023-09-19T08:40:45;4.57;;;3.30;;
6529;SDS011;3298;42.688;23.366;2023-09-19T08:43:12;6.27;;;3.57;;
6529;SDS011;3298;42.688;23.366;2023-09-19T08:45:38;3.60;;;3.37;;
6529;SDS011;3298;42.688;23.366;2023-09-19T08:48:16;4.77;;;3.60;;
6529;SDS011;3298;42.688;23.366;2023-09-19T08:50:49;3.47;;;3.27;;
6529;SDS011;3298;42.688;23.366;2023-09-19T08:53:21;7.70;;;4.33;;
6529;SDS011;3298;42.688;23.366;2023-09-19T08:55:54;7.33;;;3.67;;
6529;SDS011;3298;42.688;23.366;2023-09-19T08:58:23;3.50;;;3.30;;
6529;SDS011;3298;42.688;23.366;2023-09-19T09:00:54;4.00;;;2.93;;
6529;SDS011;3298;42.688;23.366;2023-09-19T09:03:22;5.70;;;3.70;;
6529;SDS011;3298;42.688;23.366;2023-09-19T09:05:49;5.37;;;4.00;;
6529;SDS011;3298;42.688;23.366;2023-09-19T09:08:18;6.43;;;3.83;;
6529;SDS011;3298;42.688;23.366;2023-09-19T09:10:48;3.93;;;3.63;;
6529;SDS011;3298;42.688;23.366;2023-09-19T09:13:16;4.97;;;3.97;;
6529;SDS011;3298;42.688;23.366;2023-09-19T09:15:44;5.80;;;3.30;;
6529;SDS011;3298;42.688;23.366;2023-09-19T09:18:10;9.23;;;3.93;;
6529;SDS011;3298;42.688;23.366;2023-09-19T09:20:38;4.60;;;3.70;;
6529;SDS011;3298;42.688;23.366;2023-09-19T09:23:05;4.23;;;3.20;;
6529;SDS011;3298;42.688;23.366;2023-09-19T09:25:49;2.90;;;2.73;;
6529;SDS011;3298;42.688;23.366;2023-09-19T09:28:20;3.60;;;3.10;;
6529;SDS011;3298;42.688;23.366;2023-09-19T09:30:48;3.87;;;3.63;;
6529;SDS011;3298;42.688;23.366;2023-09-19T09:33:15;3.70;;;3.43;;
6529;SDS011;3298;42.688;23.366;2023-09-19T09:35:50;4.10;;;3.73;;
6529;SDS011;3298;42.688;23.366;2023-09-19T09:38:19;4.57;;;3.43;;
6529;SDS011;3298;42.688;23.366;2023-09-19T09:40:52;5.30;;;4.10;;
6529;SDS011;3298;42.688;23.366;2023-09-19T09:43:28;4.37;;;3.77;;
6529;SDS011;3298;42.688;23.366;2023-09-19T09:46:06;5.37;;;3.53;;
6529;SDS011;3298;42.688;23.366;2023-09-19T09:48:56;3.33;;;3.13;;
6529;SDS011;3298;42.688;23.366;2023-09-19T09:51:41;3.87;;;3.57;;
6529;SDS011;3298;42.688;23.366;2023-09-19T09:54:09;3.70;;;3.20;;
6529;SDS011;3298;42.688;23.366;2023-09-19T09:56:51;4.30;;;3.30;;
6529;SDS011;3298;42.688;23.366;2023-09-19T09:59:19;4.40;;;3.57;;
6529;SDS011;3298;42.688;23.366;2023-09-19T10:01:49;3.00;;;2.80;;
6529;SDS011;3298;42.688;23.366;2023-09-19T10:04:26;5.03;;;3.33;;
6529;SDS011;3298;42.688;23.366;2023-09-19T10:06:56;6.20;;;3.47;;
6529;SDS011;3298;42.688;23.366;2023-09-19T10:09:30;5.70;;;2.70;;
6529;SDS011;3298;42.688;23.366;2023-09-19T10:12:05;5.73;;;3.40;;
6529;SDS011;3298;42.688;23.366;2023-09-19T10:14:34;8.00;;;3.33;;
6529;SDS011;3298;42.688;23.366;2023-09-19T10:17:04;5.40;;;3.73;;
6529;SDS011;3298;42.688;23.366;2023-09-19T10:19:36;3.97;;;3.03;;
6529;SDS011;3298;42.688;23.366;2023-09-19T10:22:04;7.87;;;3.37;;
6529;SDS011;3298;42.688;23.366;2023-09-19T10:24:33;8.13;;;3.67;;
6529;SDS011;3298;42.688;23.366;2023-09-19T10:27:05;3.73;;;3.43;;
6529;SDS011;3298;42.688;23.366;2023-09-19T10:29:34;4.97;;;3.63;;
6529;SDS011;3298;42.688;23.366;2023-09-19T10:32:05;7.13;;;3.73;;
6529;SDS011;3298;42.688;23.366;2023-09-19T10:34:34;13.70;;;4.17;;
6529;SDS011;3298;42.688;23.366;2023-09-19T10:37:02;8.30;;;3.50;;
6529;SDS011;3298;42.688;23.366;2023-09-19T10:39:32;5.40;;;3.23;;
6529;SDS011;3298;42.688;23.366;2023-09-19T10:42:01;3.80;;;3.50;;
6529;SDS011;3298;42.688;23.366;2023-09-19T10:44:32;4.07;;;3.73;;
6529;SDS011;3298;42.688;23.366;2023-09-19T10:46:59;3.33;;;3.13;;
6529;SDS011;3298;42.688;23.366;2023-09-19T10:49:26;6.33;;;3.37;;
6529;SDS011;3298;42.688;23.366;2023-09-19T10:51:54;6.87;;;3.60;;
6529;SDS011;3298;42.688;23.366;2023-09-19T10:54:26;3.93;;;3.73;;
6529;SDS011;3298;42.688;23.366;2023-09-19T10:56:57;4.43;;;4.07;;
6529;SDS011;3298;42.688;23.366;2023-09-19T10:59:25;3.80;;;3.53;;
6529;SDS011;3298;42.688;23.366;2023-09-19T11:02:15;3.90;;;3.60;;
6529;SDS011;3298;42.688;23.366;2023-09-19T11:04:43;4.20;;;3.67;;
6529;SDS011;3298;42.688;23.366;2023-09-19T11:07:13;4.03;;;3.60;;
6529;SDS011;3298;42.688;23.366;2023-09-19T11:09:47;3.80;;;3.60;;
6529;SDS011;3298;42.688;23.366;2023-09-19T11:21:38;4.27;;;3.50;;
6529;SDS011;3298;42.688;23.366;2023-09-19T11:24:29;5.53;;;3.40;;
6529;SDS011;3298;42.688;23.366;2023-09-19T11:27:11;3.77;;;3.40;;
6529;SDS011;3298;42.688;23.366;2023-09-19T11:29:40;3.43;;;3.23;;
6529;SDS011;3298;42.688;23.366;2023-09-19T11:32:07;7.23;;;3.60;;
6529;SDS011;3298;42.688;23.366;2023-09-19T11:34:46;4.63;;;3.73;;
6529;SDS011;3298;42.688;23.366;2023-09-19T11:40:44;3.80;;;3.60;;
6529;SDS011;3298;42.688;23.366;2023-09-19T11:43:32;5.63;;;3.60;;
6529;SDS011;3298;42.688;23.366;2023-09-19T11:46:05;5.80;;;3.37;;
6529;SDS011;3298;42.688;23.366;2023-09-19T11:48:37;3.77;;;3.57;;
6529;SDS011;3298;42.688;23.366;2023-09-19T11:51:14;4.87;;;3.53;;
6529;SDS011;3298;42.688;23.366;2023-09-19T11:53:47;4.03;;;3.73;;
6529;SDS011;3298;42.688;23.366;2023-09-19T11:56:15;6.13;;;4.13;;
6529;SDS011;3298;42.688;23.366;2023-09-19T11:58:43;3.33;;;3.03;;
6529;SDS011;3298;42.688;23.366;2023-09-19T12:01:12;3.97;;;3.77;;
6529;SDS011;3298;42.688;23.366;2023-09-19T12:03:45;4.67;;;3.80;;
6529;SDS011;3298;42.688;23.366;2023-09-19T12:06:16;4.87;;;3.63;;
6529;SDS011;3298;42.688;23.366;2023-09-19T12:08:43;3.87;;;3.50;;
6529;SDS011;3298;42.688;23.366;2023-09-19T12:11:12;4.30;;;2.93;;
6529;SDS011;3298;42.688;23.366;2023-09-19T12:13:41;3.83;;;3.63;;
6529;SDS011;3298;42.688;23.366;2023-09-19T12:16:14;4.20;;;3.97;;
6529;SDS011;3298;42.688;23.366;2023-09-19T12:18:42;5.20;;;3.90;;
6529;SDS011;3298;42.688;23.366;2023-09-19T12:21:26;3.47;;;3.27;;
6529;SDS011;3298;42.688;23.366;2023-09-19T12:23:57;4.80;;;4.20;;
6529;SDS011;3298;42.688;23.366;2023-09-19T12:26:41;5.03;;;3.40;;
6529;SDS011;3298;42.688;23.366;2023-09-19T12:29:14;4.13;;;3.83;;
6529;SDS011;3298;42.688;23.366;2023-09-19T12:31:51;9.37;;;4.57;;
6529;SDS011;3298;42.688;23.366;2023-09-19T12:34:23;3.80;;;3.60;;
6529;SDS011;3298;42.688;23.366;2023-09-19T12:37:07;3.50;;;3.30;;
6529;SDS011;3298;42.688;23.366;2023-09-19T12:39:41;4.13;;;3.93;;
6529;SDS011;3298;42.688;23.366;2023-09-19T12:42:13;4.13;;;3.50;;
6529;SDS011;3298;42.688;23.366;2023-09-19T12:44:41;4.03;;;3.67;;
6529;SDS011;3298;42.688;23.366;2023-09-19T12:47:14;4.83;;;3.60;;
6529;SDS011;3298;42.688;23.366;2023-09-19T12:52:44;4.50;;;3.63;;
6529;SDS011;3298;42.688;23.366;2023-09-19T12:55:20;7.80;;;3.70;;
6529;SDS011;3298;42.688;23.366;2023-09-19T12:58:07;4.03;;;3.73;;
6529;SDS011;3298;42.688;23.366;2023-09-19T13:00:36;4.87;;;4.23;;
6529;SDS011;3298;42.688;23.366;2023-09-19T13:05:54;6.50;;;4.00;;
6529;SDS011;3298;42.688;23.366;2023-09-19T13:08:27;4.50;;;3.60;;
6529;SDS011;3298;42.688;23.366;2023-09-19T13:11:04;3.97;;;3.77;;
6529;SDS011;3298;42.688;23.366;2023-09-19T13:13:35;8.30;;;4.20;;
6529;SDS011;3298;42.688;23.366;2023-09-19T13:16:03;4.50;;;4.20;;
6529;SDS011;3298;42.688;23.366;2023-09-19T13:18:41;8.77;;;3.83;;
6529;SDS011;3298;42.688;23.366;2023-09-19T13:21:10;5.17;;;3.97;;
6529;SDS011;3298;42.688;23.366;2023-09-19T13:23:42;5.97;;;4.03;;
6529;SDS011;3298;42.688;23.366;2023-09-19T13:26:09;5.53;;;3.73;;
6529;SDS011;3298;42.688;23.366;2023-09-19T13:28:37;3.97;;;3.63;;
6529;SDS011;3298;42.688;23.366;2023-09-19T13:31:04;3.53;;;3.33;;
6529;SDS011;3298;42.688;23.366;2023-09-19T13:33:32;4.67;;;4.30;;
6529;SDS011;3298;42.688;23.366;2023-09-19T13:36:00;4.47;;;4.10;;
6529;SDS011;3298;42.688;23.366;2023-09-19T13:38:27;4.10;;;3.83;;
6529;SDS011;3298;42.688;23.366;2023-09-19T13:40:55;4.47;;;4.07;;
6529;SDS011;3298;42.688;23.366;2023-09-19T13:43:22;4.30;;;3.90;;
6529;SDS011;3298;42.688;23.366;2023-09-19T13:45:50;6.80;;;4.63;;
6529;SDS011;3298;42.688;23.366;2023-09-19T13:48:17;4.33;;;3.50;;
6529;SDS011;3298;42.688;23.366;2023-09-19T13:50:47;4.87;;;3.67;;
6529;SDS011;3298;42.688;23.366;2023-09-19T13:53:14;5.23;;;3.60;;
6529;SDS011;3298;42.688;23.366;2023-09-19T13:55:43;4.77;;;4.30;;
6529;SDS011;3298;42.688;23.366;2023-09-19T13:58:11;4.03;;;3.73;;
6529;SDS011;3298;42.688;23.366;2023-09-19T14:00:38;6.40;;;3.87;;
6529;SDS011;3298;42.688;23.366;2023-09-19T14:03:05;7.07;;;4.03;;
6529;SDS011;3298;42.688;23.366;2023-09-19T14:05:31;4.40;;;4.10;;
6529;SDS011;3298;42.688;23.366;2023-09-19T14:07:58;4.27;;;3.90;;
6529;SDS011;3298;42.688;23.366;2023-09-19T14:10:26;6.23;;;3.73;;
6529;SDS011;3298;42.688;23.366;2023-09-19T14:12:55;4.27;;;3.87;;
6529;SDS011;3298;42.688;23.366;2023-09-19T14:15:24;4.00;;;3.70;;
6529;SDS011;3298;42.688;23.366;2023-09-19T14:17:55;4.40;;;4.10;;
6529;SDS011;3298;42.688;23.366;2023-09-19T14:20:22;4.40;;;4.00;;
6529;SDS011;3298;42.688;23.366;2023-09-19T14:22:49;5.27;;;4.77;;
6529;SDS011;3298;42.688;23.366;2023-09-19T14:25:16;6.73;;;4.43;;
6529;SDS011;3298;42.688;23.366;2023-09-19T14:27:42;3.87;;;3.67;;
6529;SDS011;3298;42.688;23.366;2023-09-19T14:30:10;3.87;;;3.53;;
6529;SDS011;3298;42.688;23.366;2023-09-19T14:32:39;4.23;;;4.00;;
6529;SDS011;3298;42.688;23.366;2023-09-19T14:35:06;4.27;;;3.97;;
6529;SDS011;3298;42.688;23.366;2023-09-19T14:37:34;5.00;;;4.57;;
6529;SDS011;3298;42.688;23.366;2023-09-19T14:40:04;3.97;;;3.73;;
6529;SDS011;3298;42.688;23.366;2023-09-19T14:42:33;4.83;;;4.53;;
6529;SDS011;3298;42.688;23.366;2023-09-19T14:45:03;4.50;;;4.20;;
6529;SDS011;3298;42.688;23.366;2023-09-19T14:47:31;7.00;;;4.10;;
6529;SDS011;3298;42.688;23.366;2023-09-19T14:50:00;10.43;;;4.50;;
6529;SDS011;3298;42.688;23.366;2023-09-19T14:52:31;4.27;;;3.77;;
6529;SDS011;3298;42.688;23.366;2023-09-19T14:54:58;4.30;;;3.90;;
6529;SDS011;3298;42.688;23.366;2023-09-19T14:57:25;5.27;;;4.00;;
6529;SDS011;3298;42.688;23.366;2023-09-19T14:59:52;5.03;;;4.67;;
6529;SDS011;3298;42.688;23.366;2023-09-19T15:02:19;4.67;;;4.23;;
6529;SDS011;3298;42.688;23.366;2023-09-19T15:04:46;4.90;;;4.50;;
6529;SDS011;3298;42.688;23.366;2023-09-19T15:07:14;4.97;;;4.57;;
6529;SDS011;3298;42.688;23.366;2023-09-19T15:09:42;4.10;;;3.87;;
6529;SDS011;3298;42.688;23.366;2023-09-19T15:12:10;5.23;;;4.73;;
6529;SDS011;3298;42.688;23.366;2023-09-19T15:14:39;7.70;;;4.87;;
6529;SDS011;3298;42.688;23.366;2023-09-19T15:17:06;4.40;;;4.10;;
6529;SDS011;3298;42.688;23.366;2023-09-19T15:19:33;4.70;;;4.40;;
6529;SDS011;3298;42.688;23.366;2023-09-19T15:22:00;7.67;;;4.57;;
6529;SDS011;3298;42.688;23.366;2023-09-19T15:24:28;6.07;;;4.43;;
6529;SDS011;3298;42.688;23.366;2023-09-19T15:26:55;4.33;;;4.13;;
6529;SDS011;3298;42.688;23.366;2023-09-19T15:29:22;4.67;;;4.37;;
6529;SDS011;3298;42.688;23.366;2023-09-19T15:31:49;4.93;;;4.60;;
6529;SDS011;3298;42.688;23.366;2023-09-19T15:34:15;6.73;;;4.60;;
6529;SDS011;3298;42.688;23.366;2023-09-19T15:36:42;5.10;;;4.80;;
6529;SDS011;3298;42.688;23.366;2023-09-19T15:39:10;3.80;;;3.60;;